Time;durP1;ratioP1;P1;durP2;ratioP2;P2;SDS_P1;SDS_P2;PMS_P1;PMS_P2;Temp;Humidity;BMP_temperature;BMP_pressure;BME280_temperature;BME280_humidity;BME280_pressure;Samples;Min_cycle;Max_cycle;Signal;HPM_P1;HPM_P2
2023/05/27 00:02:22;;;;;;;34.27;7.13;;;21.10;50.60;;;;;;5008473;28;20680;-84
2023/05/27 00:04:49;;;;;;;45.07;8.00;;;21.10;50.60;;;;;;5006866;28;20228;-84
2023/05/27 00:07:16;;;;;;;33.00;6.83;;;21.10;50.60;;;;;;5009011;28;20316;-84
2023/05/27 00:09:43;;;;;;;40.10;7.00;;;21.10;50.60;;;;;;5007303;28;20224;-83
2023/05/27 00:12:10;;;;;;;27.30;6.50;;;21.00;50.60;;;;;;5008247;28;20529;-83
2023/05/27 00:14:38;;;;;;;40.53;7.60;;;21.00;50.60;;;;;;5008464;28;20216;-83
2023/05/27 00:17:05;;;;;;;28.80;6.83;;;21.00;50.50;;;;;;5008678;28;20213;-83
2023/05/27 00:19:32;;;;;;;28.87;6.77;;;21.00;50.60;;;;;;5008337;28;20227;-83
2023/05/27 00:21:59;;;;;;;27.73;6.37;;;21.00;50.60;;;;;;5007963;28;20198;-84
2023/05/27 00:24:26;;;;;;;37.73;7.23;;;21.00;50.60;;;;;;5008638;28;20355;-83
2023/05/27 00:26:53;;;;;;;26.63;6.27;;;21.00;50.60;;;;;;5007799;28;20190;-83
2023/05/27 00:29:20;;;;;;;30.63;7.07;;;20.90;51.20;;;;;;5008815;28;20304;-83
2023/05/27 00:31:48;;;;;;;33.30;7.13;;;20.90;50.50;;;;;;5008509;28;20212;-85
2023/05/27 00:34:15;;;;;;;26.70;6.50;;;20.90;50.50;;;;;;5008743;28;20205;-84
2023/05/27 00:36:42;;;;;;;28.33;6.83;;;20.90;50.60;;;;;;5005605;28;20205;-83
2023/05/27 00:39:09;;;;;;;31.33;6.63;;;20.80;50.50;;;;;;5006446;28;20296;-84
2023/05/27 00:41:36;;;;;;;26.20;6.13;;;20.90;50.60;;;;;;5008728;28;20225;-83
2023/05/27 00:44:03;;;;;;;30.07;6.17;;;20.80;50.50;;;;;;5008297;28;20209;-84
2023/05/27 00:46:30;;;;;;;31.57;6.70;;;20.80;50.50;;;;;;5008550;28;20272;-87
2023/05/27 00:49:00;;;;;;;56.40;8.77;;;20.80;50.50;;;;;;5005569;28;20213;-89
2023/05/27 00:51:27;;;;;;;30.03;6.77;;;20.80;51.10;;;;;;5005667;28;20688;-83
2023/05/27 00:53:54;;;;;;;35.13;6.77;;;20.70;50.50;;;;;;5007610;28;20210;-84
2023/05/27 00:56:21;;;;;;;37.53;7.70;;;20.80;50.50;;;;;;5004907;28;20776;-84
2023/05/27 00:58:48;;;;;;;35.93;6.63;;;20.80;50.60;;;;;;5006409;28;20209;-83
2023/05/27 01:01:15;;;;;;;32.90;6.90;;;20.80;50.50;;;;;;5008601;28;20201;-86
2023/05/27 01:03:42;;;;;;;31.27;6.87;;;20.70;50.50;;;;;;5006789;28;20229;-91
2023/05/27 01:06:22;;;;;;;40.67;7.07;;;20.70;50.50;;;;;;5012466;28;20205;-86
2023/05/27 01:08:55;;;;;;;37.77;6.87;;;20.60;50.40;;;;;;5012108;28;20240;-87
2023/05/27 01:11:29;;;;;;;26.97;6.40;;;20.70;50.50;;;;;;5001339;28;20202;-87
2023/05/27 01:14:00;;;;;;;32.90;6.80;;;20.70;50.50;;;;;;5010144;28;20292;-86
2023/05/27 01:16:30;;;;;;;22.13;5.93;;;20.60;50.50;;;;;;5006182;28;20206;-85
2023/05/27 01:19:02;;;;;;;31.03;6.67;;;20.60;50.40;;;;;;4992449;28;20275;-84
2023/05/27 01:21:32;;;;;;;20.67;5.40;;;20.60;50.40;;;;;;5007723;28;20205;-83
2023/05/27 01:24:07;;;;;;;36.47;7.40;;;20.60;50.50;;;;;;5011967;28;20571;-84
2023/05/27 01:26:34;;;;;;;35.23;6.93;;;20.50;50.30;;;;;;5011470;28;20658;-83
2023/05/27 01:29:01;;;;;;;41.37;7.70;;;20.50;50.40;;;;;;5008487;28;20576;-83
2023/05/27 01:31:38;;;;;;;30.57;6.97;;;20.50;50.40;;;;;;5009839;28;20217;-86
2023/05/27 01:34:09;;;;;;;41.03;7.83;;;20.50;50.40;;;;;;5011533;28;20205;-84
2023/05/27 01:36:41;;;;;;;26.07;5.90;;;20.50;50.40;;;;;;5011552;28;20276;-84
2023/05/27 01:39:11;;;;;;;35.00;6.33;;;20.50;50.40;;;;;;5011582;28;20198;-84
2023/05/27 01:41:40;;;;;;;29.50;6.37;;;20.40;50.40;;;;;;5011635;28;20734;-83
2023/05/27 01:44:08;;;;;;;32.07;6.70;;;20.40;50.40;;;;;;5011100;28;20285;-83
2023/05/27 01:46:35;;;;;;;27.73;6.23;;;20.40;50.40;;;;;;5011449;28;20212;-83
2023/05/27 01:49:01;;;;;;;29.97;6.77;;;20.40;51.00;;;;;;5010923;28;20226;-84
2023/05/27 01:51:28;;;;;;;31.83;7.10;;;20.40;50.40;;;;;;5009291;28;20304;-84
2023/05/27 01:53:55;;;;;;;30.57;6.57;;;20.40;50.40;;;;;;5011551;28;20578;-83
2023/05/27 01:56:23;;;;;;;25.63;6.20;;;20.40;50.40;;;;;;5011273;28;20292;-83
2023/05/27 01:58:50;;;;;;;30.17;6.87;;;20.30;50.30;;;;;;5011119;28;20217;-83
2023/05/27 02:01:17;;;;;;;32.77;6.93;;;20.30;50.40;;;;;;5010933;28;20662;-84
2023/05/27 02:03:44;;;;;;;36.50;6.73;;;20.30;50.30;;;;;;5010788;28;20221;-84
2023/05/27 02:06:11;;;;;;;35.63;7.30;;;20.30;50.40;;;;;;5010567;28;20244;-83
2023/05/27 02:08:38;;;;;;;27.83;5.90;;;20.30;50.40;;;;;;5010668;28;20229;-83
2023/05/27 02:11:05;;;;;;;32.03;6.73;;;20.30;50.40;;;;;;5010733;28;20544;-90
2023/05/27 02:13:33;;;;;;;25.93;5.77;;;20.30;50.40;;;;;;5011135;28;20300;-83
2023/05/27 02:16:03;;;;;;;36.13;7.13;;;20.20;50.30;;;;;;5010591;28;20205;-85
2023/05/27 02:18:31;;;;;;;28.37;6.63;;;20.20;50.30;;;;;;5011228;28;20198;-87
2023/05/27 02:20:58;;;;;;;46.47;7.93;;;20.20;50.30;;;;;;5008839;28;20209;-83
2023/05/27 02:23:24;;;;;;;36.20;7.37;;;20.20;50.40;;;;;;5008425;28;20198;-83
2023/05/27 02:25:51;;;;;;;27.97;6.60;;;20.20;50.30;;;;;;5010561;28;20228;-87
2023/05/27 02:28:18;;;;;;;30.50;6.47;;;20.20;50.40;;;;;;5010667;28;20328;-85
2023/05/27 02:30:46;;;;;;;44.00;7.23;;;20.20;50.40;;;;;;5010160;28;20284;-89
2023/05/27 02:33:13;;;;;;;34.83;6.80;;;20.10;50.30;;;;;;5010489;28;20303;-83
2023/05/27 02:35:40;;;;;;;29.80;6.73;;;20.10;50.30;;;;;;5010758;28;20198;-83
2023/05/27 02:38:07;;;;;;;32.93;7.27;;;20.10;50.30;;;;;;5010340;28;20564;-83
2023/05/27 02:40:34;;;;;;;34.87;7.03;;;20.10;50.30;;;;;;5010168;28;20530;-84
2023/05/27 02:43:01;;;;;;;29.50;6.57;;;20.10;50.30;;;;;;5010203;28;20568;-85
2023/05/27 02:45:28;;;;;;;38.00;7.30;;;20.10;50.30;;;;;;5010889;28;20300;-84
2023/05/27 02:47:56;;;;;;;33.33;6.80;;;20.10;50.30;;;;;;5009958;28;20579;-84
2023/05/27 02:50:23;;;;;;;39.83;7.47;;;20.00;50.30;;;;;;5009034;28;20228;-84
2023/05/27 02:52:50;;;;;;;30.70;6.47;;;20.00;50.30;;;;;;5008144;28;20290;-83
2023/05/27 02:55:17;;;;;;;39.30;7.03;;;20.00;50.30;;;;;;5012517;28;20192;-83
2023/05/27 02:57:43;;;;;;;27.50;6.53;;;20.00;50.30;;;;;;5010644;28;20545;-84
2023/05/27 03:00:13;;;;;;;33.53;7.00;;;20.00;50.30;;;;;;5010334;28;20737;-84
2023/05/27 03:02:40;;;;;;;29.87;6.63;;;20.00;50.30;;;;;;5011648;28;20564;-83
2023/05/27 03:05:09;;;;;;;31.73;7.10;;;20.00;50.30;;;;;;5010673;28;20201;-84
2023/05/27 03:07:36;;;;;;;30.97;6.10;;;19.90;50.20;;;;;;5009916;28;20197;-86
2023/05/27 03:10:02;;;;;;;37.00;7.40;;;19.90;50.20;;;;;;5009457;28;20197;-85
2023/05/27 03:12:29;;;;;;;30.87;6.90;;;19.90;50.20;;;;;;5008617;28;20200;-84
2023/05/27 03:14:56;;;;;;;29.03;7.10;;;19.90;50.30;;;;;;5010898;28;20201;-84
2023/05/27 03:17:23;;;;;;;29.40;6.33;;;19.90;50.30;;;;;;5007356;28;20918;-83
2023/05/27 03:19:50;;;;;;;31.93;6.50;;;19.90;50.30;;;;;;5007124;28;20276;-84
2023/05/27 03:22:19;;;;;;;27.20;6.50;;;19.80;50.20;;;;;;5008718;28;20212;-84
2023/05/27 03:24:46;;;;;;;32.50;7.17;;;19.80;50.10;;;;;;5009518;28;20200;-84
2023/05/27 03:27:13;;;;;;;27.33;6.27;;;19.80;50.20;;;;;;5008904;28;20666;-84
2023/05/27 03:29:41;;;;;;;31.80;6.73;;;19.80;50.20;;;;;;5009941;28;20232;-83
2023/05/27 03:32:08;;;;;;;33.10;6.97;;;19.80;50.20;;;;;;4990618;28;20214;-86
2023/05/27 03:34:35;;;;;;;34.60;6.63;;;19.70;50.10;;;;;;4990268;28;20205;-88
2023/05/27 03:37:02;;;;;;;23.03;5.87;;;19.70;50.10;;;;;;4990635;28;20194;-85
2023/05/27 03:39:30;;;;;;;30.63;6.57;;;19.70;50.20;;;;;;5001359;28;20221;-84
2023/05/27 03:41:58;;;;;;;29.43;7.13;;;19.70;50.20;;;;;;5009673;28;20194;-84
2023/05/27 03:44:25;;;;;;;26.77;6.33;;;19.70;50.20;;;;;;5010498;28;20670;-93
2023/05/27 03:46:52;;;;;;;32.30;6.57;;;19.70;50.30;;;;;;5009253;28;20204;-85
2023/05/27 03:49:19;;;;;;;48.23;7.83;;;19.60;50.10;;;;;;5009132;28;20221;-90
2023/05/27 03:51:46;;;;;;;38.50;6.90;;;19.60;50.10;;;;;;5005376;28;20209;-91
2023/05/27 03:54:13;;;;;;;42.23;7.30;;;19.60;50.20;;;;;;5008524;28;20651;-83
2023/05/27 03:56:41;;;;;;;33.40;6.57;;;19.60;50.20;;;;;;5008754;28;20235;-88
2023/05/27 03:59:08;;;;;;;36.20;6.77;;;19.60;50.20;;;;;;5009203;28;20208;-90
2023/05/27 04:01:35;;;;;;;53.07;8.57;;;19.60;50.20;;;;;;5008227;28;20198;-91
2023/05/27 04:04:02;;;;;;;50.37;7.87;;;19.60;50.20;;;;;;5008782;28;20769;-89
2023/05/27 04:06:29;;;;;;;29.93;6.53;;;19.50;50.10;;;;;;5008593;28;20204;-87
2023/05/27 04:08:56;;;;;;;40.80;7.37;;;19.50;50.10;;;;;;5009258;28;20296;-89
2023/05/27 04:11:27;;;;;;;54.07;8.07;;;19.50;50.10;;;;;;5006845;28;20288;-85
2023/05/27 04:13:55;;;;;;;22.83;6.23;;;19.50;50.10;;;;;;5006539;28;20646;-84
2023/05/27 04:16:23;;;;;;;27.83;6.37;;;19.50;50.10;;;;;;5008604;28;20205;-89
2023/05/27 04:18:51;;;;;;;37.87;7.10;;;19.50;50.10;;;;;;5008849;28;20701;-85
2023/05/27 04:21:18;;;;;;;33.07;6.60;;;19.50;50.20;;;;;;5007239;28;20205;-87
2023/05/27 04:23:45;;;;;;;35.60;6.53;;;19.40;50.10;;;;;;5008142;28;20288;-84
2023/05/27 04:26:11;;;;;;;29.20;5.93;;;19.50;50.10;;;;;;5008736;28;20272;-86
2023/05/27 04:28:39;;;;;;;38.40;6.87;;;19.40;50.10;;;;;;5008529;28;20589;-85
2023/05/27 04:31:12;;;;;;;22.90;6.17;;;19.40;50.10;;;;;;5008450;28;20196;-85
2023/05/27 04:33:39;;;;;;;37.57;7.17;;;19.40;50.10;;;;;;5007997;28;20205;-83
2023/05/27 04:36:07;;;;;;;28.70;7.10;;;19.40;50.10;;;;;;5008325;28;20726;-83
2023/05/27 04:38:33;;;;;;;35.43;7.17;;;19.30;50.00;;;;;;5008042;28;20569;-89
2023/05/27 04:41:01;;;;;;;33.33;7.13;;;19.30;50.10;;;;;;5007930;28;20660;-87
2023/05/27 04:43:29;;;;;;;34.87;6.97;;;19.30;50.10;;;;;;5008622;28;20241;-85
2023/05/27 04:45:59;;;;;;;29.80;6.60;;;19.30;50.10;;;;;;5008351;28;20205;-88
2023/05/27 04:48:27;;;;;;;32.10;6.93;;;19.30;50.10;;;;;;5008063;28;20209;-82
2023/05/27 04:50:54;;;;;;;29.83;6.53;;;19.30;50.10;;;;;;5007424;28;20606;-85
2023/05/27 04:53:21;;;;;;;29.53;6.40;;;19.30;50.10;;;;;;5008358;28;20243;-82
2023/05/27 04:55:49;;;;;;;36.53;7.60;;;19.30;50.10;;;;;;5008123;28;20205;-82
2023/05/27 04:58:15;;;;;;;33.37;6.97;;;19.20;50.00;;;;;;5007203;28;20280;-82
2023/05/27 05:00:50;;;;;;;29.53;6.37;;;19.20;50.00;;;;;;5007636;28;20228;-84
2023/05/27 05:03:20;;;;;;;37.73;7.03;;;19.30;50.10;;;;;;5007237;28;20232;-82
2023/05/27 05:05:51;;;;;;;34.60;7.30;;;19.20;50.00;;;;;;5001822;28;20198;-83
2023/05/27 05:08:18;;;;;;;35.93;7.27;;;19.20;50.10;;;;;;4993172;28;20659;-82
2023/05/27 05:10:46;;;;;;;32.03;6.67;;;19.20;50.00;;;;;;5005659;28;20201;-83
2023/05/27 05:13:13;;;;;;;28.87;6.87;;;19.20;50.10;;;;;;5007735;28;20215;-82
2023/05/27 05:15:43;;;;;;;39.23;7.37;;;19.20;50.10;;;;;;5007814;28;20216;-84
2023/05/27 05:18:10;;;;;;;41.67;7.57;;;19.20;50.20;;;;;;5007881;28;20190;-83
2023/05/27 05:20:37;;;;;;;35.03;6.80;;;19.10;50.10;;;;;;5008018;28;20213;-82
2023/05/27 05:23:07;;;;;;;34.50;7.13;;;19.10;50.10;;;;;;5006709;28;20225;-84
2023/05/27 05:25:37;;;;;;;30.93;6.83;;;19.10;50.10;;;;;;5008157;28;20198;-83
2023/05/27 05:28:04;;;;;;;52.23;8.87;;;19.10;50.20;;;;;;5007092;28;20295;-82
2023/05/27 05:30:31;;;;;;;32.13;7.43;;;19.10;50.20;;;;;;5006618;28;20315;-83
2023/05/27 05:32:58;;;;;;;32.07;6.80;;;19.10;50.10;;;;;;5007183;28;20304;-82
2023/05/27 05:35:25;;;;;;;27.33;6.33;;;19.10;50.20;;;;;;5007686;28;20208;-82
2023/05/27 05:37:52;;;;;;;23.50;6.13;;;19.10;50.10;;;;;;5007520;28;20219;-82
2023/05/27 05:40:22;;;;;;;40.27;7.20;;;19.00;50.10;;;;;;5007754;28;20362;-88
2023/05/27 05:42:49;;;;;;;30.30;6.30;;;19.10;50.20;;;;;;5007736;28;20210;-82
2023/05/27 05:45:16;;;;;;;37.90;7.60;;;19.00;50.10;;;;;;5007393;28;20205;-83
2023/05/27 05:47:43;;;;;;;27.57;6.70;;;19.00;50.10;;;;;;5006311;28;20208;-82
2023/05/27 05:50:10;;;;;;;27.80;6.30;;;19.00;50.20;;;;;;5008166;28;20735;-84
2023/05/27 05:52:37;;;;;;;30.33;6.83;;;19.10;50.30;;;;;;5010267;28;20649;-84
2023/05/27 05:55:05;;;;;;;26.03;6.03;;;19.00;50.20;;;;;;5013742;28;20196;-83
2023/05/27 05:57:34;;;;;;;39.13;7.63;;;19.00;50.20;;;;;;5030716;28;20640;-84
2023/05/27 06:00:01;;;;;;;60.07;9.07;;;19.00;50.40;;;;;;5025173;28;20747;-86
2023/05/27 06:02:27;;;;;;;34.43;7.40;;;19.00;50.40;;;;;;5008568;28;20236;-82
2023/05/27 06:04:54;;;;;;;34.80;6.70;;;19.00;50.40;;;;;;5009064;28;20344;-90
2023/05/27 06:07:21;;;;;;;33.90;6.97;;;19.00;50.40;;;;;;5009320;28;20284;-84
2023/05/27 06:09:49;;;;;;;32.43;7.37;;;19.00;50.40;;;;;;5011007;28;20216;-83
2023/05/27 06:12:16;;;;;;;33.23;7.27;;;19.00;50.40;;;;;;5009866;28;20292;-83
2023/05/27 06:14:44;;;;;;;37.00;7.10;;;19.00;50.40;;;;;;5009910;28;20304;-83
2023/05/27 06:17:11;;;;;;;30.57;6.83;;;19.00;50.40;;;;;;5010773;28;20280;-85
2023/05/27 06:19:38;;;;;;;39.53;7.53;;;19.00;50.40;;;;;;5010781;28;20211;-83
2023/05/27 06:22:05;;;;;;;33.33;7.40;;;19.00;50.40;;;;;;5010467;28;20209;-83
2023/05/27 06:24:32;;;;;;;34.97;7.73;;;19.00;50.40;;;;;;5010473;28;20193;-84
2023/05/27 06:27:00;;;;;;;36.43;7.47;;;19.00;50.40;;;;;;5012447;28;20201;-84
2023/05/27 06:29:27;;;;;;;34.87;7.13;;;19.00;50.40;;;;;;5014146;28;20225;-83
2023/05/27 06:31:56;;;;;;;33.13;7.07;;;19.00;50.40;;;;;;5010342;28;20240;-84
2023/05/27 06:34:22;;;;;;;26.03;7.10;;;19.00;50.50;;;;;;5011187;28;20273;-84
2023/05/27 06:36:49;;;;;;;34.53;7.27;;;19.00;50.50;;;;;;5008836;28;20213;-83
2023/05/27 06:39:17;;;;;;;37.60;8.43;;;19.00;50.50;;;;;;5012487;28;20294;-93
2023/05/27 06:41:45;;;;;;;27.77;8.07;;;19.00;50.60;;;;;;5006528;28;20628;-91
2023/05/27 06:44:13;;;;;;;29.43;7.50;;;19.00;50.60;;;;;;5010745;28;20245;-91
2023/05/27 06:46:40;;;;;;;32.90;8.57;;;19.00;50.60;;;;;;5011521;28;20213;-90
2023/05/27 06:49:09;;;;;;;28.77;7.57;;;19.00;50.70;;;;;;5012055;28;20622;-91
2023/05/27 06:51:36;;;;;;;35.23;8.83;;;19.00;50.70;;;;;;5011460;28;20281;-91
2023/05/27 06:54:03;;;;;;;52.97;9.87;;;19.00;50.70;;;;;;5008583;28;20206;-91
2023/05/27 06:56:30;;;;;;;39.03;8.30;;;19.00;50.70;;;;;;5007345;28;20201;-91
2023/05/27 06:58:57;;;;;;;34.77;8.93;;;19.00;50.80;;;;;;5009532;28;20205;-90
2023/05/27 07:01:24;;;;;;;32.60;8.80;;;18.90;50.70;;;;;;5004402;28;20213;-91
2023/05/27 07:03:51;;;;;;;35.00;9.07;;;18.90;50.80;;;;;;5008908;28;20288;-90
2023/05/27 07:06:19;;;;;;;41.97;9.00;;;18.90;50.90;;;;;;5006910;28;20216;-85
2023/05/27 07:08:46;;;;;;;38.40;8.43;;;18.80;50.70;;;;;;4989978;28;20206;-86
2023/05/27 07:11:13;;;;;;;31.60;8.17;;;18.80;50.60;;;;;;4992392;28;20242;-83
2023/05/27 07:13:40;;;;;;;37.07;8.67;;;18.70;50.40;;;;;;5009544;28;20216;-84
2023/05/27 07:16:07;;;;;;;28.47;7.63;;;18.70;50.40;;;;;;5009810;28;20207;-85
2023/05/27 07:18:34;;;;;;;35.63;8.07;;;18.70;50.30;;;;;;5009094;28;20199;-85
2023/05/27 07:21:01;;;;;;;28.93;7.20;;;18.70;50.40;;;;;;5009087;28;20215;-88
2023/05/27 07:23:29;;;;;;;36.23;7.53;;;18.70;50.40;;;;;;5006717;28;20204;-85
2023/05/27 07:25:56;;;;;;;27.40;7.33;;;18.60;50.30;;;;;;5009748;28;20201;-88
2023/05/27 07:28:23;;;;;;;36.63;7.73;;;18.60;50.30;;;;;;5009628;28;20203;-84
2023/05/27 07:30:50;;;;;;;30.57;7.17;;;18.70;50.50;;;;;;5009346;28;20328;-85
2023/05/27 07:33:18;;;;;;;51.53;8.97;;;18.60;50.40;;;;;;5008643;28;20202;-85
2023/05/27 07:35:45;;;;;;;37.13;7.73;;;18.60;50.40;;;;;;5001716;28;20194;-91
2023/05/27 07:38:15;;;;;;;26.17;6.73;;;18.70;50.60;;;;;;5001883;28;20193;-89
2023/05/27 07:40:43;;;;;;;34.90;7.27;;;18.60;50.50;;;;;;5009448;28;20293;-85
2023/05/27 07:43:10;;;;;;;35.73;7.10;;;18.70;50.60;;;;;;5009318;28;20193;-85
2023/05/27 07:45:37;;;;;;;24.23;6.43;;;18.70;50.60;;;;;;5009538;28;20201;-85
2023/05/27 07:48:04;;;;;;;31.87;6.97;;;18.70;50.70;;;;;;5009041;28;20751;-86
2023/05/27 07:50:31;;;;;;;25.63;6.37;;;18.70;50.70;;;;;;5009149;28;20706;-85
2023/05/27 07:52:58;;;;;;;56.33;8.73;;;18.70;50.70;;;;;;5007048;28;20205;-84
2023/05/27 07:55:24;;;;;;;29.97;6.67;;;18.70;50.70;;;;;;5006895;28;20205;-84
2023/05/27 07:57:54;;;;;;;37.03;7.87;;;18.70;50.70;;;;;;5008598;28;20276;-84
2023/05/27 08:00:21;;;;;;;27.60;7.20;;;18.80;50.90;;;;;;5009926;28;20237;-93
2023/05/27 08:02:48;;;;;;;31.83;6.67;;;18.80;50.80;;;;;;5009936;28;20589;-87
2023/05/27 08:05:15;;;;;;;34.07;6.83;;;18.90;50.90;;;;;;5009876;28;20201;-88
2023/05/27 08:07:42;;;;;;;41.97;7.50;;;18.90;50.90;;;;;;5010082;28;20201;-88
2023/05/27 08:10:10;;;;;;;42.07;8.07;;;18.90;50.90;;;;;;5007274;28;20693;-92
2023/05/27 08:12:37;;;;;;;34.50;7.43;;;18.90;50.90;;;;;;5007061;28;20215;-86
2023/05/27 08:15:07;;;;;;;32.77;7.00;;;19.00;51.00;;;;;;5008432;28;20213;-83
2023/05/27 08:17:34;;;;;;;31.03;6.80;;;19.00;51.00;;;;;;5008545;28;20260;-84
2023/05/27 08:20:01;;;;;;;31.77;7.20;;;19.00;51.00;;;;;;5008481;28;20229;-84
2023/05/27 08:22:28;;;;;;;31.20;6.80;;;19.10;51.10;;;;;;5008361;28;20263;-86
2023/05/27 08:24:55;;;;;;;41.10;7.73;;;19.10;51.10;;;;;;5008257;28;20205;-87
2023/05/27 08:27:45;;;;;;;26.53;6.77;;;19.10;51.10;;;;;;5008831;28;20259;-89
2023/05/27 08:30:14;;;;;;;31.90;6.70;;;19.10;51.20;;;;;;4990175;28;20320;-89
2023/05/27 08:32:42;;;;;;;33.90;7.13;;;19.20;51.20;;;;;;5001825;28;20201;-89
2023/05/27 08:35:10;;;;;;;38.20;7.30;;;19.20;51.80;;;;;;5008655;28;20205;-86
2023/05/27 08:37:37;;;;;;;27.17;6.80;;;19.30;51.20;;;;;;5008910;28;20204;-91
2023/05/27 08:40:06;;;;;;;34.07;7.53;;;19.30;51.30;;;;;;5008444;28;20223;-89
2023/05/27 08:42:33;;;;;;;27.10;6.50;;;19.30;51.30;;;;;;5008493;28;20206;-85
2023/05/27 08:45:01;;;;;;;33.50;7.07;;;19.30;51.20;;;;;;5008463;28;20216;-90
2023/05/27 08:47:30;;;;;;;27.70;6.70;;;19.40;51.40;;;;;;5008898;28;20205;-86
2023/05/27 08:49:58;;;;;;;30.20;7.30;;;19.40;52.00;;;;;;5008423;28;20229;-85
2023/05/27 08:52:27;;;;;;;28.20;6.90;;;19.50;51.40;;;;;;5008752;28;20260;-89
2023/05/27 08:54:55;;;;;;;29.27;7.17;;;19.50;51.40;;;;;;5008282;28;20211;-86
2023/05/27 08:57:27;;;;;;;28.03;6.77;;;19.50;51.40;;;;;;5008896;28;20245;-87
2023/05/27 08:59:54;;;;;;;28.97;6.67;;;19.60;51.50;;;;;;5008389;28;20214;-88
2023/05/27 09:02:22;;;;;;;46.73;8.03;;;19.60;51.50;;;;;;5001781;28;20720;-88
2023/05/27 09:04:51;;;;;;;33.30;7.57;;;19.60;51.50;;;;;;5008431;28;20570;-91
2023/05/27 09:07:20;;;;;;;29.77;6.83;;;19.70;51.60;;;;;;5008681;28;20201;-89
2023/05/27 09:09:56;;;;;;;31.10;7.13;;;19.80;51.70;;;;;;5007965;28;20279;-85
2023/05/27 09:12:24;;;;;;;36.33;7.40;;;19.80;51.70;;;;;;5008541;28;20205;-86
2023/05/27 09:14:51;;;;;;;33.27;7.20;;;19.80;51.70;;;;;;5008028;28;20218;-85
2023/05/27 09:17:18;;;;;;;27.83;6.70;;;19.90;51.70;;;;;;5008322;28;20205;-85
2023/05/27 09:19:46;;;;;;;29.77;7.03;;;19.90;51.70;;;;;;5008027;28;20322;-87
2023/05/27 09:22:21;;;;;;;28.83;7.13;;;20.00;51.80;;;;;;5007990;28;20213;-87
2023/05/27 09:24:48;;;;;;;39.40;7.60;;;20.00;51.90;;;;;;5007890;28;20197;-86
2023/05/27 09:27:15;;;;;;;33.07;7.63;;;20.00;51.80;;;;;;5010891;28;20202;-85
2023/05/27 09:29:42;;;;;;;31.33;7.03;;;20.10;51.90;;;;;;5011782;28;20206;-85
2023/05/27 09:32:09;;;;;;;36.57;7.20;;;20.10;51.90;;;;;;5008611;28;20213;-85
2023/05/27 09:34:39;;;;;;;42.70;7.90;;;20.10;51.90;;;;;;5011471;28;20202;-85
2023/05/27 09:37:06;;;;;;;40.17;7.60;;;20.20;52.00;;;;;;5011296;28;20205;-85
2023/05/27 09:39:35;;;;;;;34.30;7.50;;;20.20;51.90;;;;;;5011122;28;20213;-86
2023/05/27 09:42:03;;;;;;;28.73;6.70;;;20.30;52.00;;;;;;5011333;28;20682;-85
2023/05/27 09:44:31;;;;;;;33.53;7.07;;;20.40;52.10;;;;;;5011778;28;20650;-86
2023/05/27 09:47:00;;;;;;;29.33;6.50;;;20.40;52.10;;;;;;5011362;28;20201;-86
2023/05/27 09:49:28;;;;;;;32.17;6.90;;;20.40;52.00;;;;;;5011559;28;20201;-86
2023/05/27 09:51:57;;;;;;;46.30;8.63;;;20.50;52.10;;;;;;5010756;28;20255;-85
2023/05/27 09:54:24;;;;;;;58.63;9.10;;;20.50;52.10;;;;;;5015706;28;20186;-86
2023/05/27 09:56:53;;;;;;;34.60;7.13;;;20.50;52.10;;;;;;5016921;28;20205;-85
2023/05/27 09:59:20;;;;;;;52.57;8.53;;;20.60;52.20;;;;;;5018541;28;20301;-88
2023/05/27 10:01:48;;;;;;;30.70;6.80;;;20.70;52.20;;;;;;5012329;28;20226;-88
2023/05/27 10:04:15;;;;;;;31.13;7.20;;;20.70;52.30;;;;;;5012352;28;20244;-86
2023/05/27 10:06:42;;;;;;;28.90;6.73;;;20.70;52.20;;;;;;5015186;28;20190;-86
2023/05/27 10:09:09;;;;;;;29.50;7.40;;;20.70;52.20;;;;;;5010646;28;20285;-85
2023/05/27 10:11:38;;;;;;;29.43;6.57;;;20.90;52.30;;;;;;5011639;28;20716;-85
2023/05/27 10:14:07;;;;;;;27.57;6.50;;;20.90;52.30;;;;;;5009491;28;20788;-86
2023/05/27 10:16:36;;;;;;;27.90;6.27;;;20.90;52.30;;;;;;5011125;28;20238;-85
2023/05/27 10:19:03;;;;;;;29.83;7.00;;;21.00;52.40;;;;;;5010732;28;20190;-85
2023/05/27 10:21:32;;;;;;;27.10;6.63;;;21.00;52.30;;;;;;5010939;28;20218;-85
2023/05/27 10:24:00;;;;;;;34.50;7.40;;;21.10;52.40;;;;;;5010362;28;20284;-86
2023/05/27 10:26:34;;;;;;;38.30;7.23;;;21.20;52.50;;;;;;5004490;28;20237;-86
2023/05/27 10:29:10;;;;;;;36.73;7.20;;;21.20;52.50;;;;;;5009576;28;20245;-87
2023/05/27 10:31:44;;;;;;;29.93;6.87;;;21.20;52.50;;;;;;5010493;28;20713;-86
2023/05/27 10:34:11;;;;;;;38.57;8.00;;;21.30;53.00;;;;;;5011680;28;20211;-85
2023/05/27 10:36:38;;;;;;;36.57;6.90;;;21.30;52.30;;;;;;5010098;28;20211;-85
2023/05/27 10:39:06;;;;;;;28.73;6.93;;;21.40;52.40;;;;;;5010588;28;20204;-85
2023/05/27 10:41:42;;;;;;;35.87;7.73;;;21.40;52.30;;;;;;5010402;28;20251;-86
2023/05/27 10:44:11;;;;;;;35.47;6.97;;;21.50;52.50;;;;;;5010252;28;20209;-86
2023/05/27 10:46:42;;;;;;;29.30;7.13;;;21.50;52.40;;;;;;5010501;28;20548;-86
2023/05/27 10:49:15;;;;;;;29.13;6.77;;;21.60;52.50;;;;;;5010429;28;20213;-86
2023/05/27 10:51:44;;;;;;;26.10;6.67;;;21.60;52.50;;;;;;5010225;28;20285;-91
2023/05/27 10:54:12;;;;;;;33.40;7.03;;;21.60;52.50;;;;;;5007558;28;20204;-85
2023/05/27 10:56:50;;;;;;;48.47;7.93;;;21.70;52.60;;;;;;5007430;28;20438;-85
2023/05/27 10:59:22;;;;;;;31.70;6.80;;;21.70;52.50;;;;;;5004199;28;20292;-87
2023/05/27 11:01:53;;;;;;;36.53;7.40;;;21.80;52.60;;;;;;4990606;28;20226;-85
2023/05/27 11:04:21;;;;;;;33.77;7.27;;;21.80;52.60;;;;;;4990589;28;20205;-88
2023/05/27 11:06:59;;;;;;;28.27;6.67;;;21.90;52.70;;;;;;5002528;28;20206;-85
2023/05/27 11:09:26;;;;;;;30.17;6.57;;;21.90;52.70;;;;;;5010232;28;20193;-86
2023/05/27 11:11:53;;;;;;;36.77;7.50;;;22.00;52.80;;;;;;5010128;28;20309;-87
2023/05/27 11:14:21;;;;;;;30.37;6.90;;;22.00;52.70;;;;;;5004956;28;20209;-86
2023/05/27 11:16:51;;;;;;;31.63;7.20;;;22.00;52.70;;;;;;5002942;28;20197;-86
2023/05/27 11:19:18;;;;;;;29.63;7.17;;;22.10;52.70;;;;;;5006380;28;20310;-85
2023/05/27 11:21:48;;;;;;;24.93;6.17;;;22.10;52.70;;;;;;4998794;28;20275;-86
2023/05/27 11:24:17;;;;;;;30.00;7.10;;;22.20;52.80;;;;;;5009891;28;20201;-85
2023/05/27 11:26:46;;;;;;;24.33;6.73;;;22.20;52.70;;;;;;5013305;28;20279;-87
2023/05/27 11:29:13;;;;;;;29.70;6.67;;;22.20;52.70;;;;;;5017255;28;20205;-85
2023/05/27 11:31:46;;;;;;;26.63;6.33;;;22.30;52.80;;;;;;5011767;28;20264;-88
2023/05/27 11:34:14;;;;;;;23.73;6.03;;;22.30;52.80;;;;;;5010031;28;20197;-86
2023/05/27 11:36:44;;;;;;;23.77;6.40;;;22.40;52.80;;;;;;5010197;28;20197;-85
2023/05/27 11:39:13;;;;;;;26.13;6.30;;;22.40;52.80;;;;;;5009769;28;20689;-90
2023/05/27 11:41:50;;;;;;;32.30;6.93;;;22.50;52.90;;;;;;5009545;28;20212;-89
2023/05/27 11:44:18;;;;;;;28.03;6.60;;;22.50;52.90;;;;;;5008842;28;20263;-87
2023/05/27 11:46:47;;;;;;;27.20;6.37;;;22.60;52.90;;;;;;5009636;28;20321;-87
2023/05/27 11:49:16;;;;;;;31.23;6.63;;;22.60;52.90;;;;;;5005149;28;20210;-86
2023/05/27 11:51:44;;;;;;;28.33;6.43;;;22.60;52.80;;;;;;5010254;28;20573;-86
2023/05/27 11:54:20;;;;;;;28.10;6.50;;;22.60;52.80;;;;;;5009812;28;20268;-87
2023/05/27 11:56:47;;;;;;;31.17;6.87;;;22.70;52.90;;;;;;5009296;28;20229;-85
2023/05/27 11:59:14;;;;;;;28.37;6.40;;;22.80;53.00;;;;;;5009045;28;20194;-85
2023/05/27 12:01:41;;;;;;;28.03;6.50;;;22.80;52.90;;;;;;5009122;28;20283;-84
2023/05/27 12:04:10;;;;;;;32.27;7.10;;;22.80;52.90;;;;;;5008702;28;20189;-85
2023/05/27 12:06:38;;;;;;;29.60;6.90;;;22.80;52.90;;;;;;5008656;28;20565;-85
2023/05/27 12:09:06;;;;;;;28.83;6.40;;;22.80;53.40;;;;;;5005139;28;20231;-86
2023/05/27 12:11:33;;;;;;;32.07;6.33;;;22.90;52.90;;;;;;5008166;28;20217;-87
2023/05/27 12:14:01;;;;;;;33.97;6.77;;;23.00;53.00;;;;;;5008823;28;20220;-86
2023/05/27 12:16:28;;;;;;;26.60;6.23;;;23.00;53.00;;;;;;5008439;28;20205;-87
2023/05/27 12:18:55;;;;;;;28.63;6.83;;;23.00;52.90;;;;;;5004762;28;20247;-91
2023/05/27 12:21:23;;;;;;;31.37;6.83;;;23.10;53.00;;;;;;4998517;28;20217;-89
2023/05/27 12:23:50;;;;;;;32.97;6.53;;;23.10;52.90;;;;;;4988944;28;20201;-89
2023/05/27 12:26:17;;;;;;;26.53;6.67;;;23.10;52.90;;;;;;4989886;28;20204;-87
2023/05/27 12:28:45;;;;;;;28.50;6.40;;;23.20;53.00;;;;;;5003770;28;20208;-87
2023/05/27 12:31:12;;;;;;;23.00;6.13;;;23.30;53.70;;;;;;5007454;28;20778;-84
2023/05/27 12:33:39;;;;;;;26.80;6.30;;;23.30;53.00;;;;;;4997358;28;20259;-86
2023/05/27 12:36:06;;;;;;;31.53;6.77;;;23.30;53.00;;;;;;5008950;28;20206;-91
2023/05/27 12:38:35;;;;;;;26.40;6.20;;;23.30;53.00;;;;;;5002771;28;20777;-93
2023/05/27 12:41:02;;;;;;;38.47;8.20;;;23.40;53.10;;;;;;5005427;28;20638;-93